sensor_id;sensor_type;location;lat;lon;timestamp;pressure;altitude;pressure_sealevel;temperature;humidity
31346;BME280;21711;49.708;18.568;2022-08-05T00:01:32;97355.56;;;17.57;100.00
31346;BME280;21711;49.708;18.568;2022-08-05T00:04:16;97355.41;;;17.54;100.00
31346;BME280;21711;49.708;18.568;2022-08-05T00:06:44;97355.25;;;17.50;100.00
31346;BME280;21711;49.708;18.568;2022-08-05T00:09:13;97356.19;;;17.45;100.00
31346;BME280;21711;49.708;18.568;2022-08-05T00:11:42;97364.06;;;17.42;100.00
31346;BME280;21711;49.708;18.568;2022-08-05T00:14:17;97357.13;;;17.41;100.00
31346;BME280;21711;49.708;18.568;2022-08-05T00:16:45;97367.38;;;17.39;100.00
31346;BME280;21711;49.708;18.568;2022-08-05T00:19:22;97362.78;;;17.39;100.00
31346;BME280;21711;49.708;18.568;2022-08-05T00:22:11;97357.63;;;17.43;100.00
31346;BME280;21711;49.708;18.568;2022-08-05T00:24:39;97362.63;;;17.35;100.00
31346;BME280;21711;49.708;18.568;2022-08-05T00:27:08;97358.72;;;17.33;100.00
31346;BME280;21711;49.708;18.568;2022-08-05T00:29:43;97357.59;;;17.34;100.00
31346;BME280;21711;49.708;18.568;2022-08-05T00:32:10;97355.72;;;17.34;100.00
31346;BME280;21711;49.708;18.568;2022-08-05T00:34:43;97359.50;;;17.33;100.00
31346;BME280;21711;49.708;18.568;2022-08-05T00:37:32;97350.69;;;17.33;100.00
31346;BME280;21711;49.708;18.568;2022-08-05T00:40:21;97347.88;;;17.29;100.00
31346;BME280;21711;49.708;18.568;2022-08-05T00:42:57;97354.63;;;17.27;100.00
31346;BME280;21711;49.708;18.568;2022-08-05T00:45:24;97356.19;;;17.28;100.00
31346;BME280;21711;49.708;18.568;2022-08-05T00:48:07;97351.81;;;17.23;100.00
31346;BME280;21711;49.708;18.568;2022-08-05T00:50:38;97354.94;;;17.16;100.00
31346;BME280;21711;49.708;18.568;2022-08-05T00:53:08;97349.75;;;17.11;100.00
31346;BME280;21711;49.708;18.568;2022-08-05T00:55:56;97350.38;;;17.08;100.00
31346;BME280;21711;49.708;18.568;2022-08-05T00:58:23;97352.69;;;17.01;100.00
31346;BME280;21711;49.708;18.568;2022-08-05T01:00:53;97347.19;;;16.97;100.00
31346;BME280;21711;49.708;18.568;2022-08-05T01:03:21;97346.41;;;16.96;100.00
31346;BME280;21711;49.708;18.568;2022-08-05T01:05:52;97344.34;;;16.93;100.00
31346;BME280;21711;49.708;18.568;2022-08-05T01:08:21;97351.75;;;16.96;100.00
31346;BME280;21711;49.708;18.568;2022-08-05T01:11:13;97340.59;;;16.94;100.00
31346;BME280;21711;49.708;18.568;2022-08-05T01:17:07;97338.06;;;16.80;100.00
31346;BME280;21711;49.708;18.568;2022-08-05T01:19:50;97338.22;;;16.84;100.00
31346;BME280;21711;49.708;18.568;2022-08-05T01:26:17;97333.19;;;16.74;100.00
31346;BME280;21711;49.708;18.568;2022-08-05T01:29:07;97333.63;;;16.67;100.00
31346;BME280;21711;49.708;18.568;2022-08-05T01:31:47;97328.28;;;16.67;100.00
31346;BME280;21711;49.708;18.568;2022-08-05T01:34:31;97327.81;;;16.65;100.00
31346;BME280;21711;49.708;18.568;2022-08-05T01:39:52;97323.09;;;16.62;100.00
31346;BME280;21711;49.708;18.568;2022-08-05T01:42:26;97319.34;;;16.63;100.00
31346;BME280;21711;49.708;18.568;2022-08-05T01:44:59;97321.03;;;16.59;100.00
31346;BME280;21711;49.708;18.568;2022-08-05T01:47:31;97326.38;;;16.59;100.00
31346;BME280;21711;49.708;18.568;2022-08-05T01:50:18;97319.16;;;16.59;100.00
31346;BME280;21711;49.708;18.568;2022-08-05T01:53:10;97319.00;;;16.55;100.00
31346;BME280;21711;49.708;18.568;2022-08-05T01:55:42;97321.19;;;16.53;100.00
31346;BME280;21711;49.708;18.568;2022-08-05T01:58:14;97319.94;;;16.51;100.00
31346;BME280;21711;49.708;18.568;2022-08-05T02:00:49;97315.69;;;16.50;100.00
31346;BME280;21711;49.708;18.568;2022-08-05T02:03:36;97317.72;;;16.53;100.00
31346;BME280;21711;49.708;18.568;2022-08-05T02:06:06;97321.03;;;16.59;100.00
31346;BME280;21711;49.708;18.568;2022-08-05T02:08:54;97311.16;;;16.59;100.00
31346;BME280;21711;49.708;18.568;2022-08-05T02:11:31;97315.56;;;16.55;100.00
31346;BME280;21711;49.708;18.568;2022-08-05T02:14:16;97310.03;;;16.51;100.00
31346;BME280;21711;49.708;18.568;2022-08-05T02:16:54;97308.91;;;16.43;100.00
31346;BME280;21711;49.708;18.568;2022-08-05T02:22:01;97309.41;;;16.46;100.00
31346;BME280;21711;49.708;18.568;2022-08-05T02:24:37;97307.94;;;16.39;100.00
31346;BME280;21711;49.708;18.568;2022-08-05T02:27:09;97299.78;;;16.36;100.00
31346;BME280;21711;49.708;18.568;2022-08-05T02:29:40;97305.75;;;16.33;100.00
31346;BME280;21711;49.708;18.568;2022-08-05T02:32:29;97299.16;;;16.30;100.00
31346;BME280;21711;49.708;18.568;2022-08-05T02:35:11;97296.16;;;16.32;100.00
31346;BME280;21711;49.708;18.568;2022-08-05T02:37:54;97298.97;;;16.26;100.00
31346;BME280;21711;49.708;18.568;2022-08-05T02:40:26;97300.69;;;16.22;100.00
31346;BME280;21711;49.708;18.568;2022-08-05T02:42:54;97295.69;;;16.21;100.00
31346;BME280;21711;49.708;18.568;2022-08-05T02:45:24;97296.75;;;16.20;100.00
31346;BME280;21711;49.708;18.568;2022-08-05T02:47:55;97290.16;;;16.17;100.00
31346;BME280;21711;49.708;18.568;2022-08-05T02:50:38;97298.47;;;16.15;100.00
31346;BME280;21711;49.708;18.568;2022-08-05T02:53:11;97297.69;;;16.15;100.00
31346;BME280;21711;49.708;18.568;2022-08-05T02:55:49;97294.34;;;16.09;100.00
31346;BME280;21711;49.708;18.568;2022-08-05T02:58:28;97293.59;;;16.09;100.00
31346;BME280;21711;49.708;18.568;2022-08-05T03:01:00;97295.16;;;16.10;100.00
31346;BME280;21711;49.708;18.568;2022-08-05T03:03:29;97296.25;;;16.09;100.00
31346;BME280;21711;49.708;18.568;2022-08-05T03:06:01;97294.19;;;16.06;100.00
31346;BME280;21711;49.708;18.568;2022-08-05T03:08:50;97291.03;;;16.03;100.00
31346;BME280;21711;49.708;18.568;2022-08-05T03:11:23;97285.22;;;16.01;100.00
31346;BME280;21711;49.708;18.568;2022-08-05T03:14:11;97280.38;;;16.03;100.00
31346;BME280;21711;49.708;18.568;2022-08-05T03:16:39;97289.31;;;16.08;100.00
31346;BME280;21711;49.708;18.568;2022-08-05T03:19:07;97286.19;;;16.06;100.00
31346;BME280;21711;49.708;18.568;2022-08-05T03:21:55;97291.84;;;16.04;100.00
31346;BME280;21711;49.708;18.568;2022-08-05T03:24:24;97285.91;;;16.07;100.00
31346;BME280;21711;49.708;18.568;2022-08-05T03:26:57;97294.19;;;16.06;100.00
31346;BME280;21711;49.708;18.568;2022-08-05T03:29:26;97309.25;;;16.10;100.00
31346;BME280;21711;49.708;18.568;2022-08-05T03:32:15;97292.00;;;16.08;100.00
31346;BME280;21711;49.708;18.568;2022-08-05T03:34:46;97306.28;;;16.12;100.00
31346;BME280;21711;49.708;18.568;2022-08-05T03:37:18;97303.78;;;16.15;100.00
31346;BME280;21711;49.708;18.568;2022-08-05T03:39:57;97296.94;;;16.23;100.00
31346;BME280;21711;49.708;18.568;2022-08-05T03:42:29;97292.22;;;16.29;100.00
31346;BME280;21711;49.708;18.568;2022-08-05T03:44:59;97295.09;;;16.41;100.00
31346;BME280;21711;49.708;18.568;2022-08-05T03:47:47;97294.00;;;16.51;100.00
31346;BME280;21711;49.708;18.568;2022-08-05T03:50:15;97294.03;;;16.60;100.00
31346;BME280;21711;49.708;18.568;2022-08-05T03:56:28;97302.25;;;16.90;100.00
31346;BME280;21711;49.708;18.568;2022-08-05T03:59:15;97295.84;;;17.09;100.00
31346;BME280;21711;49.708;18.568;2022-08-05T04:01:49;97297.25;;;17.33;100.00
31346;BME280;21711;49.708;18.568;2022-08-05T04:04:19;97306.00;;;17.69;100.00
31346;BME280;21711;49.708;18.568;2022-08-05T04:06:52;97293.97;;;17.93;100.00
31346;BME280;21711;49.708;18.568;2022-08-05T04:09:22;97297.06;;;18.12;100.00
31346;BME280;21711;49.708;18.568;2022-08-05T04:11:54;97302.81;;;18.32;100.00
31346;BME280;21711;49.708;18.568;2022-08-05T04:14:26;97298.59;;;18.52;100.00
31346;BME280;21711;49.708;18.568;2022-08-05T04:16:58;97302.03;;;18.83;100.00
31346;BME280;21711;49.708;18.568;2022-08-05T04:19:28;97296.78;;;19.17;100.00
31346;BME280;21711;49.708;18.568;2022-08-05T04:21:55;97290.03;;;19.32;100.00
31346;BME280;21711;49.708;18.568;2022-08-05T04:24:43;97294.84;;;19.73;100.00
31346;BME280;21711;49.708;18.568;2022-08-05T04:27:19;97295.47;;;20.03;100.00
31346;BME280;21711;49.708;18.568;2022-08-05T04:30:08;97291.00;;;20.45;100.00
31346;BME280;21711;49.708;18.568;2022-08-05T04:32:36;97291.06;;;20.73;100.00
31346;BME280;21711;49.708;18.568;2022-08-05T04:35:06;97291.38;;;20.84;100.00
31346;BME280;21711;49.708;18.568;2022-08-05T04:37:45;97298.03;;;21.15;100.00
31346;BME280;21711;49.708;18.568;2022-08-05T04:40:32;97294.91;;;21.42;100.00
31346;BME280;21711;49.708;18.568;2022-08-05T04:43:00;97287.38;;;21.64;100.00
31346;BME280;21711;49.708;18.568;2022-08-05T04:45:28;97284.75;;;21.80;100.00
31346;BME280;21711;49.708;18.568;2022-08-05T04:48:15;97295.69;;;21.87;100.00
31346;BME280;21711;49.708;18.568;2022-08-05T04:50:54;97300.09;;;22.28;100.00
31346;BME280;21711;49.708;18.568;2022-08-05T04:53:37;97294.09;;;22.86;100.00
31346;BME280;21711;49.708;18.568;2022-08-05T04:56:08;97295.81;;;23.34;100.00
31346;BME280;21711;49.708;18.568;2022-08-05T04:58:56;97303.31;;;24.11;100.00
31346;BME280;21711;49.708;18.568;2022-08-05T05:01:24;97299.81;;;24.88;100.00
31346;BME280;21711;49.708;18.568;2022-08-05T05:04:11;97309.50;;;25.24;100.00
31346;BME280;21711;49.708;18.568;2022-08-05T05:06:39;97306.28;;;25.86;100.00
31346;BME280;21711;49.708;18.568;2022-08-05T05:09:15;97302.34;;;26.25;100.00
31346;BME280;21711;49.708;18.568;2022-08-05T05:11:44;97296.94;;;26.89;79.69
31346;BME280;21711;49.708;18.568;2022-08-05T05:14:23;97298.22;;;27.24;73.42
31346;BME280;21711;49.708;18.568;2022-08-05T05:16:59;97300.09;;;27.05;78.66
31346;BME280;21711;49.708;18.568;2022-08-05T05:19:27;97305.91;;;27.04;78.83
31346;BME280;21711;49.708;18.568;2022-08-05T05:22:11;97303.34;;;27.51;74.74
31346;BME280;21711;49.708;18.568;2022-08-05T05:24:55;97304.97;;;28.10;63.54
31346;BME280;21711;49.708;18.568;2022-08-05T05:27:29;97315.06;;;28.50;57.72
31346;BME280;21711;49.708;18.568;2022-08-05T05:30:13;97318.06;;;28.96;56.27
31346;BME280;21711;49.708;18.568;2022-08-05T05:33:00;97306.25;;;29.28;54.91
31346;BME280;21711;49.708;18.568;2022-08-05T05:35:44;97312.00;;;29.48;52.16
31346;BME280;21711;49.708;18.568;2022-08-05T05:38:14;97314.28;;;29.57;52.92
31346;BME280;21711;49.708;18.568;2022-08-05T05:40:56;97310.41;;;30.15;49.48
31346;BME280;21711;49.708;18.568;2022-08-05T05:43:24;97324.28;;;30.74;47.81
31346;BME280;21711;49.708;18.568;2022-08-05T05:46:11;97314.75;;;30.89;47.33
31346;BME280;21711;49.708;18.568;2022-08-05T05:48:45;97311.97;;;31.55;46.00
31346;BME280;21711;49.708;18.568;2022-08-05T05:51:24;97312.66;;;31.63;44.19
31346;BME280;21711;49.708;18.568;2022-08-05T05:53:54;97318.41;;;32.20;43.25
31346;BME280;21711;49.708;18.568;2022-08-05T05:56:30;97318.88;;;32.15;43.18
31346;BME280;21711;49.708;18.568;2022-08-05T05:59:05;97314.25;;;31.88;43.97
31346;BME280;21711;49.708;18.568;2022-08-05T06:01:39;97312.81;;;32.51;42.68
31346;BME280;21711;49.708;18.568;2022-08-05T06:04:23;97309.03;;;32.45;44.70
31346;BME280;21711;49.708;18.568;2022-08-05T06:06:51;97312.00;;;32.75;43.43
31346;BME280;21711;49.708;18.568;2022-08-05T06:09:18;97314.78;;;32.91;42.22
31346;BME280;21711;49.708;18.568;2022-08-05T06:11:54;97324.69;;;33.79;40.86
31346;BME280;21711;49.708;18.568;2022-08-05T06:14:31;97316.81;;;34.15;37.81
31346;BME280;21711;49.708;18.568;2022-08-05T06:17:01;97311.84;;;34.56;36.84
31346;BME280;21711;49.708;18.568;2022-08-05T06:19:49;97311.22;;;34.94;35.89
31346;BME280;21711;49.708;18.568;2022-08-05T06:22:31;97312.88;;;34.62;38.23
31346;BME280;21711;49.708;18.568;2022-08-05T06:25:04;97318.25;;;35.08;36.54
31346;BME280;21711;49.708;18.568;2022-08-05T06:27:51;97312.47;;;35.19;36.20
31346;BME280;21711;49.708;18.568;2022-08-05T06:30:39;97318.06;;;36.19;36.03
31346;BME280;21711;49.708;18.568;2022-08-05T06:33:07;97319.25;;;36.54;33.38
31346;BME280;21711;49.708;18.568;2022-08-05T06:35:37;97313.69;;;36.44;33.02
31346;BME280;21711;49.708;18.568;2022-08-05T06:38:24;97317.34;;;36.64;33.66
31346;BME280;21711;49.708;18.568;2022-08-05T06:41:04;97311.94;;;36.38;34.19
31346;BME280;21711;49.708;18.568;2022-08-05T06:43:35;97311.19;;;36.59;32.94
31346;BME280;21711;49.708;18.568;2022-08-05T06:46:23;97313.59;;;36.35;33.25
31346;BME280;21711;49.708;18.568;2022-08-05T06:48:57;97307.16;;;36.96;32.47
31346;BME280;21711;49.708;18.568;2022-08-05T06:51:28;97315.97;;;37.45;31.42
31346;BME280;21711;49.708;18.568;2022-08-05T06:53:58;97312.50;;;38.13;30.98
31346;BME280;21711;49.708;18.568;2022-08-05T06:56:29;97318.19;;;38.19;31.07
31346;BME280;21711;49.708;18.568;2022-08-05T06:59:04;97316.50;;;38.40;30.72
31346;BME280;21711;49.708;18.568;2022-08-05T07:01:37;97309.75;;;38.79;29.06
31346;BME280;21711;49.708;18.568;2022-08-05T07:04:08;97312.81;;;38.53;30.68
31346;BME280;21711;49.708;18.568;2022-08-05T07:06:36;97315.41;;;39.37;30.01
31346;BME280;21711;49.708;18.568;2022-08-05T07:09:04;97310.47;;;39.51;28.97
31346;BME280;21711;49.708;18.568;2022-08-05T07:11:33;97313.22;;;39.08;29.76
31346;BME280;21711;49.708;18.568;2022-08-05T07:14:03;97308.03;;;39.34;27.87
31346;BME280;21711;49.708;18.568;2022-08-05T07:16:58;97312.69;;;39.28;27.97
31346;BME280;21711;49.708;18.568;2022-08-05T07:19:48;97316.00;;;38.79;31.05
31346;BME280;21711;49.708;18.568;2022-08-05T07:22:36;97314.94;;;39.72;28.31
31346;BME280;21711;49.708;18.568;2022-08-05T07:25:05;97317.75;;;39.29;28.99
31346;BME280;21711;49.708;18.568;2022-08-05T07:27:54;97320.00;;;39.40;27.62
31346;BME280;21711;49.708;18.568;2022-08-05T07:30:38;97318.13;;;39.80;27.47
31346;BME280;21711;49.708;18.568;2022-08-05T07:33:09;97324.47;;;40.05;27.71
31346;BME280;21711;49.708;18.568;2022-08-05T07:35:44;97305.25;;;40.02;27.92
31346;BME280;21711;49.708;18.568;2022-08-05T07:38:33;97307.59;;;39.94;27.81
31346;BME280;21711;49.708;18.568;2022-08-05T07:41:15;97314.84;;;40.16;27.61
31346;BME280;21711;49.708;18.568;2022-08-05T07:44:06;97316.97;;;41.21;26.02
31346;BME280;21711;49.708;18.568;2022-08-05T07:46:45;97316.28;;;41.77;25.76
31346;BME280;21711;49.708;18.568;2022-08-05T07:49:16;97310.66;;;40.75;27.25
31346;BME280;21711;49.708;18.568;2022-08-05T07:51:45;97306.47;;;40.49;26.80
31346;BME280;21711;49.708;18.568;2022-08-05T07:54:23;97304.16;;;40.23;27.71
31346;BME280;21711;49.708;18.568;2022-08-05T07:57:03;97299.50;;;40.15;26.68
31346;BME280;21711;49.708;18.568;2022-08-05T07:59:50;97308.09;;;40.32;27.57
31346;BME280;21711;49.708;18.568;2022-08-05T08:02:27;97305.41;;;41.37;27.65
31346;BME280;21711;49.708;18.568;2022-08-05T08:05:16;97313.25;;;41.96;27.40
31346;BME280;21711;49.708;18.568;2022-08-05T08:07:43;97308.47;;;42.17;24.86
31346;BME280;21711;49.708;18.568;2022-08-05T08:10:27;97313.63;;;42.77;24.94
31346;BME280;21711;49.708;18.568;2022-08-05T08:12:56;97314.19;;;43.46;23.34
31346;BME280;21711;49.708;18.568;2022-08-05T08:15:24;97310.84;;;43.42;23.20
31346;BME280;21711;49.708;18.568;2022-08-05T08:18:11;97313.84;;;43.82;23.16
31346;BME280;21711;49.708;18.568;2022-08-05T08:20:40;97313.50;;;44.06;23.59
31346;BME280;21711;49.708;18.568;2022-08-05T08:23:27;97312.00;;;44.22;21.86
31346;BME280;21711;49.708;18.568;2022-08-05T08:26:15;97307.91;;;44.12;23.28
31346;BME280;21711;49.708;18.568;2022-08-05T08:28:57;97308.13;;;44.02;23.54
31346;BME280;21711;49.708;18.568;2022-08-05T08:31:44;97317.97;;;43.92;23.60
31346;BME280;21711;49.708;18.568;2022-08-05T08:34:21;97314.97;;;44.01;23.45
31346;BME280;21711;49.708;18.568;2022-08-05T08:36:59;97310.31;;;44.48;22.54
31346;BME280;21711;49.708;18.568;2022-08-05T08:39:31;97312.84;;;44.46;22.08
31346;BME280;21711;49.708;18.568;2022-08-05T08:42:04;97313.41;;;44.84;22.55
31346;BME280;21711;49.708;18.568;2022-08-05T08:44:56;97309.47;;;44.24;23.82
31346;BME280;21711;49.708;18.568;2022-08-05T08:47:45;97316.97;;;45.13;22.01
31346;BME280;21711;49.708;18.568;2022-08-05T08:50:35;97311.13;;;45.17;21.89
31346;BME280;21711;49.708;18.568;2022-08-05T08:53:24;97307.44;;;43.64;23.46
31346;BME280;21711;49.708;18.568;2022-08-05T08:55:54;97302.25;;;44.67;20.67
31346;BME280;21711;49.708;18.568;2022-08-05T08:58:31;97310.38;;;44.93;22.60
31346;BME280;21711;49.708;18.568;2022-08-05T09:01:11;97306.50;;;44.34;21.70
31346;BME280;21711;49.708;18.568;2022-08-05T09:03:53;97303.22;;;44.64;20.56
31346;BME280;21711;49.708;18.568;2022-08-05T09:06:26;97311.38;;;44.73;21.88
31346;BME280;21711;49.708;18.568;2022-08-05T09:08:58;97301.81;;;44.02;20.97
31346;BME280;21711;49.708;18.568;2022-08-05T09:11:27;97302.22;;;45.36;20.29
31346;BME280;21711;49.708;18.568;2022-08-05T09:14:15;97311.41;;;46.07;19.99
31346;BME280;21711;49.708;18.568;2022-08-05T09:17:08;97298.19;;;46.55;18.26
31346;BME280;21711;49.708;18.568;2022-08-05T09:19:56;97290.91;;;45.93;18.70
31346;BME280;21711;49.708;18.568;2022-08-05T09:23:10;97286.53;;;46.51;19.63
31346;BME280;21711;49.708;18.568;2022-08-05T09:25:51;97283.22;;;45.05;21.53
31346;BME280;21711;49.708;18.568;2022-08-05T09:28:31;97281.53;;;43.96;21.71
31346;BME280;21711;49.708;18.568;2022-08-05T09:31:03;97287.28;;;45.27;21.83
31346;BME280;21711;49.708;18.568;2022-08-05T09:33:57;97285.84;;;45.86;20.34
31346;BME280;21711;49.708;18.568;2022-08-05T09:39:23;97283.66;;;45.61;21.55
31346;BME280;21711;49.708;18.568;2022-08-05T09:42:18;97284.50;;;46.04;19.41
31346;BME280;21711;49.708;18.568;2022-08-05T09:44:55;97289.97;;;46.32;19.39
31346;BME280;21711;49.708;18.568;2022-08-05T09:47:29;97283.94;;;46.17;18.41
31346;BME280;21711;49.708;18.568;2022-08-05T09:50:18;97284.34;;;45.79;18.52
31346;BME280;21711;49.708;18.568;2022-08-05T09:53:06;97287.56;;;44.95;20.15
31346;BME280;21711;49.708;18.568;2022-08-05T09:55:35;97284.06;;;45.94;20.04
31346;BME280;21711;49.708;18.568;2022-08-05T09:58:24;97281.97;;;46.06;19.84
31346;BME280;21711;49.708;18.568;2022-08-05T10:01:04;97284.22;;;45.54;19.45
31346;BME280;21711;49.708;18.568;2022-08-05T10:04:04;97273.59;;;45.29;19.18
31346;BME280;21711;49.708;18.568;2022-08-05T10:06:56;97270.78;;;44.44;21.31
31346;BME280;21711;49.708;18.568;2022-08-05T10:09:26;97272.41;;;43.40;21.92
31346;BME280;21711;49.708;18.568;2022-08-05T10:12:09;97265.13;;;43.98;23.00
31346;BME280;21711;49.708;18.568;2022-08-05T10:15:15;97264.38;;;43.48;24.22
31346;BME280;21711;49.708;18.568;2022-08-05T10:20:56;97260.28;;;43.98;21.85
31346;BME280;21711;49.708;18.568;2022-08-05T10:23:37;97255.31;;;43.15;20.98
31346;BME280;21711;49.708;18.568;2022-08-05T10:26:24;97254.81;;;44.27;21.29
31346;BME280;21711;49.708;18.568;2022-08-05T10:28:59;97254.59;;;45.05;22.13
31346;BME280;21711;49.708;18.568;2022-08-05T10:31:27;97253.59;;;45.14;22.20
31346;BME280;21711;49.708;18.568;2022-08-05T10:34:15;97259.91;;;44.28;21.34
31346;BME280;21711;49.708;18.568;2022-08-05T10:36:43;97256.38;;;44.39;22.10
31346;BME280;21711;49.708;18.568;2022-08-05T10:39:20;97249.47;;;44.18;21.11
31346;BME280;21711;49.708;18.568;2022-08-05T10:42:15;97242.97;;;43.71;21.54
31346;BME280;21711;49.708;18.568;2022-08-05T10:44:58;97242.81;;;43.37;21.96
31346;BME280;21711;49.708;18.568;2022-08-05T10:47:33;97249.94;;;42.74;21.99
31346;BME280;21711;49.708;18.568;2022-08-05T10:50:12;97249.75;;;42.83;22.91
31346;BME280;21711;49.708;18.568;2022-08-05T10:53:00;97249.72;;;42.77;24.57
31346;BME280;21711;49.708;18.568;2022-08-05T10:55:27;97246.13;;;42.44;22.72
31346;BME280;21711;49.708;18.568;2022-08-05T10:58:17;97244.56;;;42.64;25.67
31346;BME280;21711;49.708;18.568;2022-08-05T11:00:46;97235.97;;;42.62;24.04
31346;BME280;21711;49.708;18.568;2022-08-05T11:03:21;97241.44;;;41.83;24.35
31346;BME280;21711;49.708;18.568;2022-08-05T11:06:12;97235.38;;;41.63;23.47
31346;BME280;21711;49.708;18.568;2022-08-05T11:11:58;97228.03;;;41.39;24.18
31346;BME280;21711;49.708;18.568;2022-08-05T11:14:32;97226.03;;;40.89;27.23
31346;BME280;21711;49.708;18.568;2022-08-05T11:23:52;97227.16;;;40.67;28.81
31346;BME280;21711;49.708;18.568;2022-08-05T11:26:40;97223.47;;;40.40;24.38
31346;BME280;21711;49.708;18.568;2022-08-05T11:29:34;97226.72;;;39.50;27.30
31346;BME280;21711;49.708;18.568;2022-08-05T11:32:26;97219.16;;;39.26;27.20
31346;BME280;21711;49.708;18.568;2022-08-05T11:34:56;97217.31;;;38.89;28.10
31346;BME280;21711;49.708;18.568;2022-08-05T11:37:42;97218.28;;;38.77;30.26
31346;BME280;21711;49.708;18.568;2022-08-05T11:41:00;97217.59;;;38.01;29.53
31346;BME280;21711;49.708;18.568;2022-08-05T11:49:34;97211.13;;;36.31;32.65
31346;BME280;21711;49.708;18.568;2022-08-05T11:52:02;97218.50;;;36.34;32.69
31346;BME280;21711;49.708;18.568;2022-08-05T11:54:38;97211.75;;;36.13;34.18
31346;BME280;21711;49.708;18.568;2022-08-05T11:57:07;97206.38;;;35.74;35.90
31346;BME280;21711;49.708;18.568;2022-08-05T11:59:52;97208.41;;;35.34;33.42
31346;BME280;21711;49.708;18.568;2022-08-05T12:02:29;97210.63;;;35.13;33.17
31346;BME280;21711;49.708;18.568;2022-08-05T12:05:03;97213.13;;;35.08;35.66
31346;BME280;21711;49.708;18.568;2022-08-05T12:07:36;97206.75;;;35.11;32.22
31346;BME280;21711;49.708;18.568;2022-08-05T12:10:27;97198.72;;;34.91;35.08
31346;BME280;21711;49.708;18.568;2022-08-05T12:13:15;97200.16;;;34.82;34.24
31346;BME280;21711;49.708;18.568;2022-08-05T12:16:11;97202.13;;;34.95;35.69
31346;BME280;21711;49.708;18.568;2022-08-05T12:18:45;97195.97;;;34.91;34.33
31346;BME280;21711;49.708;18.568;2022-08-05T12:21:34;97199.19;;;34.89;34.59
31346;BME280;21711;49.708;18.568;2022-08-05T12:24:11;97191.25;;;34.78;35.16
31346;BME280;21711;49.708;18.568;2022-08-05T12:26:50;97198.22;;;34.53;34.15
31346;BME280;21711;49.708;18.568;2022-08-05T12:29:25;97198.41;;;34.46;36.58
31346;BME280;21711;49.708;18.568;2022-08-05T12:31:56;97201.84;;;34.50;39.57
31346;BME280;21711;49.708;18.568;2022-08-05T12:34:35;97195.25;;;34.47;38.59
31346;BME280;21711;49.708;18.568;2022-08-05T12:37:08;97201.13;;;34.62;37.27
31346;BME280;21711;49.708;18.568;2022-08-05T12:39:50;97201.03;;;34.66;40.47
31346;BME280;21711;49.708;18.568;2022-08-05T12:42:29;97193.34;;;34.61;40.31
31346;BME280;21711;49.708;18.568;2022-08-05T12:45:09;97191.06;;;34.43;37.06
31346;BME280;21711;49.708;18.568;2022-08-05T12:47:37;97194.81;;;34.49;39.27
31346;BME280;21711;49.708;18.568;2022-08-05T12:50:24;97188.28;;;34.30;36.64
31346;BME280;21711;49.708;18.568;2022-08-05T12:52:56;97182.94;;;34.52;36.86
31346;BME280;21711;49.708;18.568;2022-08-05T12:55:29;97181.84;;;34.49;35.62
31346;BME280;21711;49.708;18.568;2022-08-05T12:57:59;97184.47;;;34.40;35.57
31346;BME280;21711;49.708;18.568;2022-08-05T13:00:47;97171.28;;;34.35;35.38
31346;BME280;21711;49.708;18.568;2022-08-05T13:03:37;97172.72;;;34.27;35.75
31346;BME280;21711;49.708;18.568;2022-08-05T13:06:15;97171.22;;;34.09;35.09
31346;BME280;21711;49.708;18.568;2022-08-05T13:08:46;97172.13;;;34.19;34.23
31346;BME280;21711;49.708;18.568;2022-08-05T13:11:26;97175.88;;;34.25;37.83
31346;BME280;21711;49.708;18.568;2022-08-05T13:14:22;97168.28;;;34.16;33.83
31346;BME280;21711;49.708;18.568;2022-08-05T13:17:29;97173.97;;;34.09;35.95
31346;BME280;21711;49.708;18.568;2022-08-05T13:20:12;97171.41;;;34.31;36.09
31346;BME280;21711;49.708;18.568;2022-08-05T13:22:52;97174.59;;;34.43;37.29
31346;BME280;21711;49.708;18.568;2022-08-05T13:25:20;97170.25;;;34.16;32.74
31346;BME280;21711;49.708;18.568;2022-08-05T13:27:51;97169.28;;;33.93;32.66
31346;BME280;21711;49.708;18.568;2022-08-05T13:30:22;97168.63;;;33.72;36.49
31346;BME280;21711;49.708;18.568;2022-08-05T13:33:03;97167.59;;;33.66;39.92
31346;BME280;21711;49.708;18.568;2022-08-05T13:35:30;97174.47;;;33.57;37.10
31346;BME280;21711;49.708;18.568;2022-08-05T13:38:19;97171.47;;;33.52;34.57
31346;BME280;21711;49.708;18.568;2022-08-05T13:41:02;97172.59;;;33.54;38.08
31346;BME280;21711;49.708;18.568;2022-08-05T13:43:30;97165.72;;;33.46;35.67
31346;BME280;21711;49.708;18.568;2022-08-05T13:46:12;97169.56;;;33.49;35.68
31346;BME280;21711;49.708;18.568;2022-08-05T13:48:40;97171.63;;;33.44;35.15
31346;BME280;21711;49.708;18.568;2022-08-05T13:51:32;97171.28;;;33.42;34.74
31346;BME280;21711;49.708;18.568;2022-08-05T13:54:08;97171.06;;;33.53;35.47
31346;BME280;21711;49.708;18.568;2022-08-05T13:56:43;97165.63;;;33.50;35.75
31346;BME280;21711;49.708;18.568;2022-08-05T13:59:20;97164.19;;;33.45;39.58
31346;BME280;21711;49.708;18.568;2022-08-05T14:01:56;97161.78;;;33.47;39.74
31346;BME280;21711;49.708;18.568;2022-08-05T14:04:32;97164.03;;;33.36;41.67
31346;BME280;21711;49.708;18.568;2022-08-05T14:07:27;97171.72;;;33.24;41.54
31346;BME280;21711;49.708;18.568;2022-08-05T14:10:18;97164.88;;;33.16;41.47
31346;BME280;21711;49.708;18.568;2022-08-05T14:12:55;97156.31;;;33.14;35.36
31346;BME280;21711;49.708;18.568;2022-08-05T14:15:24;97148.28;;;33.06;36.07
31346;BME280;21711;49.708;18.568;2022-08-05T14:18:12;97154.47;;;32.90;37.74
31346;BME280;21711;49.708;18.568;2022-08-05T14:20:46;97150.13;;;33.10;38.73